createdAt,value
2023-04-25T00:02:25.787Z,8.017578
2023-04-25T00:05:50.928Z,7.977295
2023-04-25T00:09:16.162Z,8.017578
2023-04-25T00:12:41.365Z,8.067932
2023-04-25T00:16:06.575Z,8.078003
2023-04-25T00:19:31.760Z,8.067932
2023-04-25T00:22:56.978Z,8.03772
2023-04-25T00:26:22.234Z,8.047791
2023-04-25T00:29:47.845Z,8.078003
2023-04-25T00:33:12.944Z,8.108215
2023-04-25T00:36:38.121Z,8.118286
2023-04-25T00:40:03.321Z,8.148499
2023-04-25T00:43:28.515Z,8.148499
2023-04-25T00:46:53.812Z,8.178711
2023-04-25T00:50:18.943Z,8.198853
2023-04-25T00:53:44.142Z,8.118286
2023-04-25T00:57:09.372Z,8.148499
2023-04-25T01:00:34.612Z,8.118286
2023-04-25T01:03:59.883Z,8.067932
2023-04-25T01:07:25.026Z,8.067932
2023-04-25T01:10:50.258Z,8.067932
2023-04-25T01:14:15.489Z,8.118286
2023-04-25T01:17:40.734Z,8.098145
2023-04-25T01:21:05.916Z,8.098145
2023-04-25T01:24:31.105Z,8.098145
2023-04-25T01:27:56.313Z,8.078003
2023-04-25T01:31:21.556Z,8.047791
2023-04-25T01:34:46.768Z,8.067932
2023-04-25T01:38:12.009Z,8.017578
2023-04-25T01:41:37.227Z,8.03772
2023-04-25T01:45:02.469Z,8.007507
2023-04-25T01:48:27.647Z,8.067932
2023-04-25T01:51:52.856Z,8.047791
2023-04-25T01:55:18.089Z,8.108215
2023-04-25T01:58:43.286Z,8.098145
2023-04-25T02:02:08.517Z,8.108215
2023-04-25T02:05:33.698Z,8.078003
2023-04-25T02:08:58.943Z,8.108215
2023-04-25T02:12:24.175Z,8.098145
2023-04-25T02:15:49.433Z,8.067932
2023-04-25T02:19:14.596Z,8.067932
2023-04-25T02:22:39.842Z,7.967224
2023-04-25T02:26:05.065Z,7.896729
2023-04-25T02:29:30.390Z,7.926941
2023-04-25T02:32:55.638Z,7.886658
2023-04-25T02:36:20.805Z,7.91687
2023-04-25T02:39:46.022Z,7.926941
2023-04-25T02:43:11.249Z,7.926941
2023-04-25T02:46:39.218Z,7.947083
2023-04-25T02:50:01.683Z,7.977295
2023-04-25T02:53:26.862Z,7.886658
2023-04-25T02:56:52.078Z,7.91687
2023-04-25T03:00:17.270Z,7.886658
2023-04-25T03:03:42.577Z,7.866516
2023-04-25T03:07:07.700Z,7.856445
2023-04-25T03:10:32.911Z,7.856445
2023-04-25T03:13:58.121Z,7.846375
2023-04-25T03:17:23.367Z,7.856445
2023-04-25T03:20:48.578Z,7.846375
2023-04-25T03:24:13.784Z,7.826233
2023-04-25T03:27:38.987Z,7.816162
2023-04-25T03:31:04.190Z,7.745667
2023-04-25T03:34:29.385Z,7.735596
2023-04-25T03:37:54.993Z,7.705383
2023-04-25T03:41:20.230Z,7.6651
2023-04-25T03:44:45.492Z,7.503967
2023-04-25T03:48:10.772Z,7.463684
2023-04-25T03:51:35.967Z,7.423401
2023-04-25T03:55:01.267Z,7.393188
2023-04-25T03:58:26.466Z,7.373047
2023-04-25T04:01:51.698Z,7.342834
2023-04-25T04:05:17.010Z,7.312622
2023-04-25T04:08:42.162Z,7.322693
2023-04-25T04:12:07.424Z,7.201843
2023-04-25T04:15:32.659Z,7.16156
2023-04-25T04:18:57.877Z,7.101135
2023-04-25T04:22:23.102Z,7.070923
2023-04-25T04:25:48.341Z,6.919861
2023-04-25T04:29:13.614Z,6.809082
2023-04-25T04:32:38.843Z,6.839294
2023-04-25T04:36:04.042Z,6.809082
2023-04-25T04:39:29.281Z,6.950073
2023-04-25T04:42:54.522Z,6.980286
2023-04-25T04:46:19.806Z,7.03064
2023-04-25T04:49:44.979Z,6.990356
2023-04-25T04:53:10.208Z,6.889648
2023-04-25T04:56:35.415Z,6.889648
2023-04-25T05:00:00.665Z,6.889648
2023-04-25T05:03:26.010Z,6.879578
2023-04-25T05:06:51.108Z,6.879578
2023-04-25T05:10:16.360Z,6.879578
2023-04-25T05:13:41.630Z,6.889648
2023-04-25T05:17:06.825Z,6.90979
2023-04-25T05:20:33.453Z,6.919861
2023-04-25T05:23:58.632Z,6.980286
2023-04-25T05:27:23.856Z,7.060852
2023-04-25T05:30:49.100Z,7.060852
2023-04-25T05:34:14.302Z,7.131348
2023-04-25T05:37:39.541Z,7.232056
2023-04-25T05:41:04.801Z,7.252197
2023-04-25T05:44:29.981Z,7.352905
2023-04-25T05:47:55.240Z,7.403259
2023-04-25T05:51:20.465Z,7.453613
2023-04-25T05:54:45.693Z,7.503967
2023-04-25T05:58:10.903Z,7.554321
2023-04-25T06:01:36.161Z,7.685242
2023-04-25T06:05:01.681Z,7.705383
2023-04-25T06:08:26.654Z,7.675171
2023-04-25T06:11:51.911Z,7.6651
2023-04-25T06:15:27.729Z,7.715454
2023-04-25T06:18:42.322Z,7.745667
2023-04-25T06:22:07.546Z,7.826233
2023-04-25T06:25:32.807Z,7.886658
2023-04-25T06:28:58.124Z,7.856445
2023-04-25T06:32:23.400Z,7.896729
2023-04-25T06:35:48.597Z,7.91687
2023-04-25T06:39:13.798Z,7.926941
2023-04-25T06:42:39.024Z,8.007507
2023-04-25T06:46:04.346Z,8.158569
2023-04-25T06:49:29.512Z,8.188782
2023-04-25T06:52:54.728Z,8.229065
2023-04-25T06:56:19.938Z,8.259277
2023-04-25T06:59:45.179Z,8.28949
2023-04-25T07:03:10.569Z,8.380127
2023-04-25T07:06:35.665Z,8.450623
2023-04-25T07:10:00.911Z,8.500977
2023-04-25T07:13:26.151Z,8.430481
2023-04-25T07:16:51.432Z,8.370056
2023-04-25T07:20:16.668Z,8.410339
2023-04-25T07:23:42.153Z,8.480835
2023-04-25T07:27:07.390Z,8.551331
2023-04-25T07:30:32.581Z,8.662109
2023-04-25T07:33:59.409Z,8.833313
2023-04-25T07:37:23.113Z,8.863525
2023-04-25T07:40:48.283Z,8.803101
2023-04-25T07:44:13.537Z,8.833313
2023-04-25T07:47:38.813Z,8.92395
2023-04-25T07:51:04.030Z,8.944092
2023-04-25T07:54:29.254Z,8.954163
2023-04-25T07:57:54.464Z,8.92395
2023-04-25T08:01:19.673Z,8.833313
2023-04-25T08:04:45.164Z,8.702393
2023-04-25T08:08:10.117Z,8.682251
2023-04-25T08:11:35.352Z,8.662109
2023-04-25T08:15:00.581Z,8.631897
2023-04-25T08:18:25.805Z,8.611755
2023-04-25T08:21:50.983Z,8.551331
2023-04-25T08:25:16.247Z,8.702393
2023-04-25T08:28:41.460Z,9.014587
2023-04-25T08:32:06.653Z,9.145508
2023-04-25T08:35:31.882Z,9.145508
2023-04-25T08:38:57.404Z,9.125366
2023-04-25T08:42:22.379Z,8.92395
2023-04-25T08:45:47.634Z,8.79303
2023-04-25T08:49:12.843Z,8.79303
2023-04-25T08:52:38.082Z,8.843384
2023-04-25T08:56:03.269Z,8.913879
2023-04-25T08:59:28.523Z,8.994446
2023-04-25T09:02:53.858Z,9.075012
2023-04-25T09:06:18.974Z,9.17572
2023-04-25T09:09:44.229Z,9.195862
2023-04-25T09:13:09.493Z,9.226074
2023-04-25T09:16:36.560Z,9.286499
2023-04-25T09:19:59.985Z,9.387207
2023-04-25T09:23:25.181Z,9.467773
2023-04-25T09:26:50.435Z,9.497986
2023-04-25T09:30:15.623Z,9.387207
2023-04-25T09:33:40.887Z,9.306641
2023-04-25T09:37:06.325Z,9.286499
2023-04-25T09:40:31.392Z,9.205933
2023-04-25T09:43:56.614Z,9.054871
2023-04-25T09:47:21.873Z,8.843384
2023-04-25T09:50:47.014Z,8.762817
2023-04-25T09:54:12.310Z,8.742676
2023-04-25T09:57:37.480Z,8.79303
2023-04-25T10:01:02.716Z,8.893738
2023-04-25T10:04:28.077Z,8.994446
2023-04-25T10:07:53.149Z,9.075012
2023-04-25T10:11:18.414Z,9.145508
2023-04-25T10:14:43.600Z,9.125366
2023-04-25T10:18:08.942Z,8.964233
2023-04-25T10:21:34.037Z,8.863525
2023-04-25T10:24:59.273Z,8.833313
2023-04-25T10:28:24.574Z,8.772888
2023-04-25T10:31:49.749Z,8.742676
2023-04-25T10:35:14.985Z,8.732605
2023-04-25T10:38:40.785Z,8.762817
2023-04-25T10:42:06.017Z,8.813171
2023-04-25T10:45:31.417Z,8.843384
2023-04-25T10:48:56.617Z,8.944092
2023-04-25T10:52:21.818Z,9.014587
2023-04-25T10:55:47.061Z,9.145508
2023-04-25T10:59:12.344Z,9.236145
2023-04-25T11:02:37.796Z,9.528198
2023-04-25T11:06:02.788Z,9.659119
2023-04-25T11:09:28.029Z,9.719543
2023-04-25T11:12:53.265Z,9.659119
2023-04-25T11:19:43.777Z,9.346924
2023-04-25T11:23:08.978Z,9.326782
2023-04-25T11:26:34.197Z,9.42749
2023-04-25T11:29:59.421Z,9.638977
2023-04-25T11:33:24.679Z,9.759827
2023-04-25T11:36:49.968Z,9.830322
2023-04-25T11:40:15.070Z,9.779968
2023-04-25T11:43:42.894Z,9.870605
2023-04-25T11:47:05.805Z,9.870605
2023-04-25T11:50:31.016Z,9.991455
2023-04-25T11:53:56.283Z,9.779968
2023-04-25T11:57:21.463Z,9.417419
2023-04-25T12:00:50.293Z,8.732605
2023-04-25T12:04:12.027Z,8.500977
2023-04-25T12:07:37.129Z,8.531189
2023-04-25T12:11:02.376Z,8.611755
2023-04-25T12:14:27.558Z,8.702393
2023-04-25T12:17:52.850Z,8.79303
2023-04-25T12:21:18.010Z,8.843384
2023-04-25T12:24:43.280Z,8.913879
2023-04-25T12:28:08.583Z,9.014587
2023-04-25T12:31:33.863Z,9.145508
2023-04-25T12:34:59.021Z,9.236145
2023-04-25T12:38:24.236Z,9.276428
2023-04-25T12:41:49.479Z,9.326782
2023-04-25T12:45:15.058Z,9.286499
2023-04-25T12:48:40.450Z,9.346924
2023-04-25T12:52:05.387Z,9.467773
2023-04-25T12:55:30.592Z,9.508057
2023-04-25T12:58:55.785Z,9.638977
2023-04-25T13:02:21.177Z,9.689331
2023-04-25T13:05:46.440Z,9.759827
2023-04-25T13:09:11.714Z,9.749756
2023-04-25T13:12:37.005Z,9.689331
2023-04-25T13:16:02.386Z,9.759827
2023-04-25T13:19:27.644Z,9.709473
2023-04-25T13:22:52.905Z,9.689331
2023-04-25T13:26:18.250Z,9.638977
2023-04-25T13:29:43.579Z,9.457703
2023-04-25T13:33:09.018Z,9.095154
2023-04-25T13:36:34.343Z,8.92395
2023-04-25T13:39:59.633Z,8.833313
2023-04-25T13:43:24.910Z,8.833313
2023-04-25T13:46:50.251Z,8.803101
2023-04-25T13:50:15.625Z,8.732605
2023-04-25T13:53:40.923Z,8.712463
2023-04-25T13:57:06.173Z,8.712463
2023-04-25T14:00:31.469Z,8.662109
2023-04-25T14:03:56.807Z,8.702393
2023-04-25T14:07:22.152Z,8.833313
2023-04-25T14:10:47.483Z,8.893738
2023-04-25T14:14:12.857Z,8.913879
2023-04-25T14:17:38.167Z,8.964233
2023-04-25T14:21:03.551Z,9.0448
2023-04-25T14:24:28.859Z,8.984375
2023-04-25T14:27:54.345Z,8.863525
2023-04-25T14:31:19.653Z,8.742676
2023-04-25T14:34:44.891Z,8.551331
2023-04-25T14:38:10.214Z,8.329773
2023-04-25T14:41:35.563Z,8.28949
2023-04-25T14:45:01.157Z,8.339844
2023-04-25T14:48:26.567Z,8.249207
2023-04-25T14:51:51.984Z,8.148499
2023-04-25T14:55:17.119Z,8.148499
2023-04-25T14:58:42.424Z,7.967224
2023-04-25T15:02:07.747Z,7.926941
2023-04-25T15:39:23.511Z,8.339844
2023-04-25T15:42:48.781Z,8.299561
2023-04-25T15:46:14.128Z,8.249207
2023-04-25T15:49:39.442Z,8.28949
2023-04-25T15:53:06.553Z,8.249207
2023-04-25T15:56:30.055Z,8.249207
2023-04-25T15:59:55.370Z,8.198853
2023-04-25T16:03:20.782Z,8.198853
2023-04-25T16:06:45.960Z,8.259277
2023-04-25T16:10:11.253Z,8.229065
2023-04-25T16:13:36.637Z,8.178711
2023-04-25T16:17:03.137Z,8.067932
2023-04-25T16:20:28.480Z,8.017578
2023-04-25T16:23:53.777Z,7.967224
2023-04-25T16:27:19.090Z,8.017578
2023-04-25T16:30:44.538Z,8.067932
2023-04-25T16:34:09.860Z,8.118286
2023-04-25T16:37:34.936Z,8.178711
2023-04-25T16:41:00.293Z,8.108215
2023-04-25T16:44:25.550Z,8.078003
2023-04-25T16:47:50.900Z,7.91687
2023-04-25T16:51:16.136Z,7.826233
2023-04-25T16:54:41.461Z,7.816162
2023-04-25T16:58:08.153Z,7.856445
2023-04-25T17:01:32.137Z,7.816162
2023-04-25T17:04:57.404Z,7.826233
2023-04-25T17:08:23.467Z,7.796021
2023-04-25T17:11:48.927Z,7.745667
2023-04-25T17:15:14.343Z,7.735596
2023-04-25T17:18:40.078Z,7.6651
2023-04-25T17:22:05.458Z,7.644958
2023-04-25T17:25:30.776Z,7.6651
2023-04-25T17:28:56.057Z,7.584534
2023-04-25T17:32:21.372Z,7.554321
2023-04-25T17:35:46.704Z,7.554321
2023-04-25T17:39:12.071Z,7.574463
2023-04-25T17:42:37.382Z,7.503967
2023-04-25T17:46:02.777Z,7.483826
2023-04-25T17:49:28.056Z,7.524109
2023-04-25T17:52:53.386Z,7.524109
2023-04-25T17:56:26.355Z,7.604675
2023-04-25T17:59:44.040Z,7.503967
2023-04-25T18:03:09.373Z,7.483826
2023-04-25T18:06:34.682Z,7.483826
2023-04-25T18:10:00.079Z,7.463684
2023-04-25T18:13:25.433Z,7.423401
2023-04-25T18:16:50.793Z,7.453613
2023-04-25T18:20:16.131Z,7.352905
2023-04-25T18:23:41.476Z,7.28241
2023-04-25T18:27:06.796Z,7.201843
2023-04-25T18:30:32.145Z,7.121277
2023-04-25T18:33:57.436Z,7.091064
2023-04-25T18:37:22.764Z,6.970215
2023-04-25T18:40:56.617Z,6.919861
2023-04-25T18:44:13.401Z,6.839294
2023-04-25T18:47:38.949Z,6.688232
2023-04-25T18:51:04.039Z,6.637878
2023-04-25T18:54:29.376Z,6.617737
2023-04-25T18:57:54.700Z,6.53717
2023-04-25T19:01:20.015Z,6.365967
2023-04-25T19:04:45.318Z,5.993347
2023-04-25T19:08:10.570Z,5.751648
2023-04-25T19:11:35.894Z,5.600586
2023-04-25T19:15:01.227Z,5.489807
2023-04-25T19:18:26.512Z,5.560303
2023-04-25T19:21:51.950Z,5.570374
2023-04-25T19:25:17.156Z,5.53009
2023-04-25T19:28:42.476Z,5.449524
2023-04-25T19:32:07.755Z,5.419312
2023-04-25T19:35:33.072Z,5.389099
2023-04-25T19:38:58.338Z,5.358887
2023-04-25T19:42:23.646Z,5.358887
2023-04-25T19:45:48.991Z,5.449524
2023-04-25T19:49:14.218Z,5.479736
2023-04-25T19:52:39.449Z,5.449524
2023-04-25T19:56:04.758Z,5.449524
2023-04-25T19:59:29.925Z,5.509949
2023-04-25T20:02:55.176Z,5.449524
2023-04-25T20:06:20.412Z,5.489807
2023-04-25T20:09:45.671Z,5.479736
2023-04-25T20:13:10.936Z,5.560303
2023-04-25T20:16:36.128Z,5.570374
2023-04-25T20:20:01.331Z,5.600586
2023-04-25T20:23:26.564Z,5.610657
2023-04-25T20:26:51.810Z,5.630798
2023-04-25T20:30:17.093Z,5.600586
2023-04-25T20:33:42.301Z,5.610657
2023-04-25T20:37:07.545Z,5.630798
2023-04-25T20:40:32.759Z,5.741577
2023-04-25T20:43:57.991Z,5.761719
2023-04-25T20:47:23.257Z,5.78186
2023-04-25T20:50:48.425Z,5.711365
2023-04-25T20:54:13.646Z,5.711365
2023-04-25T20:57:38.876Z,5.640869
2023-04-25T21:01:04.196Z,5.600586
2023-04-25T21:04:29.401Z,5.509949
2023-04-25T21:07:54.580Z,5.328674
2023-04-25T21:11:19.807Z,5.248108
2023-04-25T21:14:45.029Z,5.207825
2023-04-25T21:18:10.353Z,5.127258
2023-04-25T21:21:35.573Z,5.1474
2023-04-25T21:25:00.729Z,5.1474
2023-04-25T21:28:25.957Z,5.217896
2023-04-25T21:31:51.194Z,5.27832
2023-04-25T21:35:16.489Z,5.39917
2023-04-25T21:38:41.751Z,5.379028
2023-04-25T21:42:06.975Z,5.328674
2023-04-25T21:45:32.172Z,5.298462
2023-04-25T21:48:57.390Z,5.308533
2023-04-25T21:52:22.607Z,5.238037
2023-04-25T21:55:47.858Z,5.177612
2023-04-25T21:59:13.049Z,5.1474
2023-04-25T22:02:38.308Z,5.167542
2023-04-25T22:06:03.488Z,5.167542
2023-04-25T22:09:28.699Z,5.177612
2023-04-25T22:12:53.995Z,5.1474
2023-04-25T22:16:19.140Z,5.097046
2023-04-25T22:19:44.354Z,5.097046
2023-04-25T22:23:09.592Z,5.117188
2023-04-25T22:26:35.053Z,5.086975
2023-04-25T22:30:00.415Z,5.016479
2023-04-25T22:33:25.481Z,4.956055
2023-04-25T22:36:50.710Z,4.966125
2023-04-25T22:40:15.960Z,4.966125
2023-04-25T22:43:41.217Z,4.966125
2023-04-25T22:47:06.435Z,4.956055
2023-04-25T22:50:31.638Z,5.02655
2023-04-25T22:53:56.890Z,5.086975
2023-04-25T22:57:22.115Z,5.097046
2023-04-25T23:00:47.382Z,5.056763
2023-04-25T23:04:12.917Z,5.086975
2023-04-25T23:07:37.842Z,5.097046
2023-04-25T23:11:03.074Z,5.1474
2023-04-25T23:14:28.337Z,5.197754
2023-04-25T23:17:53.590Z,5.207825
2023-04-25T23:21:18.827Z,5.197754
2023-04-25T23:24:44.055Z,5.1474
2023-04-25T23:28:09.292Z,5.117188
2023-04-25T23:31:34.567Z,5.117188
2023-04-25T23:34:59.723Z,5.117188
2023-04-25T23:38:24.958Z,5.1474
2023-04-25T23:41:50.139Z,5.117188
2023-04-25T23:45:15.361Z,5.066833
2023-04-25T23:48:40.568Z,5.066833
2023-04-25T23:52:05.766Z,5.036621
2023-04-25T23:55:30.997Z,4.996338
2023-04-25T23:58:56.228Z,4.996338
